Time;durP1;ratioP1;P1;durP2;ratioP2;P2;SDS_P1;SDS_P2;PMS_P1;PMS_P2;Temp;Humidity;BMP_temperature;BMP_pressure;BME280_temperature;BME280_humidity;BME280_pressure;Samples;Min_cycle;Max_cycle;Signal;HPM_P1;HPM_P2
2022/08/18 00:00:50;;;;;;;24.85;22.75;;;;;;;;;;4887491;29;20448;-67
2022/08/18 00:03:16;;;;;;;26.05;23.88;;;;;;;;;;4890081;29;20484;-67
2022/08/18 00:05:41;;;;;;;23.52;21.63;;;;;;;;;;4884065;29;20033;-68
2022/08/18 00:08:07;;;;;;;24.35;22.15;;;;;;;;;;4887306;29;20485;-67
2022/08/18 00:10:33;;;;;;;23.67;21.73;;;;;;;;;;4887725;29;20251;-67
2022/08/18 00:12:58;;;;;;;25.13;22.83;;;;;;;;;;4886719;29;20729;-67
2022/08/18 00:15:24;;;;;;;22.73;20.90;;;;;;;;;;4891519;29;20040;-67
2022/08/18 00:17:50;;;;;;;22.63;20.63;;;;;;;;;;4891950;29;20572;-67
2022/08/18 00:20:20;;;;;;;21.30;19.50;;;;;;;;;;4890351;29;20044;-67
2022/08/18 00:22:47;;;;;;;22.70;20.90;;;;;;;;;;4887970;29;20043;-67
2022/08/18 00:25:16;;;;;;;21.45;19.85;;;;;;;;;;4887613;29;20092;-68
2022/08/18 00:27:41;;;;;;;;;;;;;;;;;;4889385;29;20032;-67
2022/08/18 00:30:11;;;;;;;21.02;19.42;;;;;;;;;;4887868;29;19916;-67
2022/08/18 00:32:40;;;;;;;21.33;19.27;;;;;;;;;;4888537;29;20408;-67
2022/08/18 00:35:06;;;;;;;;;;;;;;;;;;4891355;29;20036;-67
2022/08/18 00:37:32;;;;;;;21.48;19.70;;;;;;;;;;4889872;29;19915;-67
2022/08/18 00:39:57;;;;;;;21.50;19.70;;;;;;;;;;4885010;29;21313;-67
2022/08/18 00:42:27;;;;;;;20.92;19.23;;;;;;;;;;4888150;29;20044;-67
2022/08/18 00:44:53;;;;;;;21.35;19.70;;;;;;;;;;4887902;29;20556;-67
2022/08/18 00:47:19;;;;;;;22.27;20.27;;;;;;;;;;4891001;29;20063;-67
2022/08/18 00:49:47;;;;;;;22.52;20.58;;;;;;;;;;4887406;29;20566;-67
2022/08/18 00:52:15;;;;;;;22.70;20.70;;;;;;;;;;4889962;29;20321;-67
2022/08/18 00:54:43;;;;;;;23.02;21.05;;;;;;;;;;4889959;29;20044;-67
2022/08/18 00:57:10;;;;;;;21.90;20.00;;;;;;;;;;4886022;29;20036;-67
2022/08/18 00:59:48;;;;;;;20.45;18.60;;;;;;;;;;4887554;29;20044;-67
2022/08/18 01:02:19;;;;;;;22.07;20.17;;;;;;;;;;4889608;29;20115;-67
2022/08/18 01:05:00;;;;;;;21.98;19.92;;;;;;;;;;4885926;29;20490;-67
2022/08/18 01:07:37;;;;;;;23.80;21.73;;;;;;;;;;4892942;29;20044;-68
2022/08/18 01:10:04;;;;;;;22.02;20.00;;;;;;;;;;4891815;29;20092;-68
2022/08/18 01:12:30;;;;;;;21.50;19.70;;;;;;;;;;4891463;29;20036;-68
2022/08/18 01:14:56;;;;;;;21.13;19.38;;;;;;;;;;4891941;29;20032;-68
2022/08/18 01:23:08;;;;;;;21.60;19.60;;;;;;;;;;4888292;29;20056;-68
2022/08/18 01:28:21;;;;;;;21.90;20.15;;;;;;;;;;4892638;29;20092;-68
2022/08/18 01:30:50;;;;;;;22.60;20.73;;;;;;;;;;4888671;29;20484;-69
2022/08/18 01:33:17;;;;;;;23.75;21.58;;;;;;;;;;4892250;29;20083;-68
2022/08/18 01:35:48;;;;;;;24.58;22.20;;;;;;;;;;4893056;29;20111;-69
2022/08/18 01:38:21;;;;;;;24.98;22.73;;;;;;;;;;4891082;29;20036;-68
2022/08/18 01:40:47;;;;;;;25.50;23.20;;;;;;;;;;4892575;29;20044;-69
2022/08/18 01:43:14;;;;;;;26.38;23.98;;;;;;;;;;4892938;29;20115;-69
2022/08/18 01:45:41;;;;;;;25.65;23.45;;;;;;;;;;4890800;29;20044;-68
2022/08/18 01:48:07;;;;;;;24.77;22.50;;;;;;;;;;4889593;29;20037;-69
2022/08/18 01:50:34;;;;;;;26.08;23.73;;;;;;;;;;4908557;29;20086;-69
2022/08/18 01:53:01;;;;;;;26.25;23.95;;;;;;;;;;4888084;29;20028;-68
2022/08/18 01:55:29;;;;;;;26.35;23.75;;;;;;;;;;4888966;29;20769;-69
2022/08/18 01:57:55;;;;;;;25.48;23.08;;;;;;;;;;4892658;29;20043;-68
2022/08/18 02:00:20;;;;;;;26.23;23.92;;;;;;;;;;4892499;29;20036;-68
2022/08/18 02:02:47;;;;;;;26.25;23.83;;;;;;;;;;4887162;29;20051;-68
2022/08/18 02:05:23;;;;;;;25.45;23.30;;;;;;;;;;4892183;29;20040;-67
2022/08/18 02:07:49;;;;;;;25.73;23.52;;;;;;;;;;4891346;29;20072;-68
2022/08/18 02:10:16;;;;;;;24.88;22.83;;;;;;;;;;4891182;29;20050;-68
2022/08/18 02:12:42;;;;;;;24.77;22.48;;;;;;;;;;4888165;29;20047;-68
2022/08/18 02:15:08;;;;;;;25.08;22.67;;;;;;;;;;4891977;29;20029;-68
2022/08/18 02:17:43;;;;;;;26.65;24.25;;;;;;;;;;4892582;29;20083;-68
2022/08/18 02:20:11;;;;;;;25.73;23.33;;;;;;;;;;4892214;29;20041;-69
2022/08/18 02:22:38;;;;;;;27.58;24.90;;;;;;;;;;4890148;29;20032;-68
2022/08/18 02:25:04;;;;;;;26.73;24.38;;;;;;;;;;4891628;29;20100;-68
2022/08/18 02:27:29;;;;;;;25.75;23.23;;;;;;;;;;4891584;29;20492;-69
2022/08/18 02:29:58;;;;;;;25.40;22.95;;;;;;;;;;4889610;29;20048;-68
2022/08/18 02:32:23;;;;;;;26.83;24.37;;;;;;;;;;4891435;29;20103;-68
2022/08/18 02:34:49;;;;;;;26.13;23.75;;;;;;;;;;4891694;29;20472;-68
2022/08/18 02:37:14;;;;;;;27.30;24.77;;;;;;;;;;4887291;29;20044;-69
2022/08/18 02:39:40;;;;;;;24.08;22.08;;;;;;;;;;4890927;29;20055;-69
2022/08/18 02:42:06;;;;;;;24.05;21.92;;;;;;;;;;4891710;29;20033;-68
2022/08/18 02:44:33;;;;;;;25.02;22.50;;;;;;;;;;4891305;29;20040;-68
2022/08/18 02:46:59;;;;;;;25.13;22.92;;;;;;;;;;4879314;29;20536;-68
2022/08/18 02:49:25;;;;;;;25.15;22.73;;;;;;;;;;4892469;29;20036;-68
2022/08/18 02:51:51;;;;;;;25.30;23.10;;;;;;;;;;4892054;29;20549;-66
2022/08/18 02:54:21;;;;;;;26.60;23.73;;;;;;;;;;4890019;29;20120;-68
2022/08/18 02:56:50;;;;;;;25.30;22.85;;;;;;;;;;4892255;29;20507;-68
2022/08/18 02:59:25;;;;;;;26.83;24.33;;;;;;;;;;4892858;29;20519;-68
2022/08/18 03:01:52;;;;;;;25.70;23.30;;;;;;;;;;4890470;29;20412;-68
2022/08/18 03:04:22;;;;;;;25.77;23.48;;;;;;;;;;4890770;29;20048;-69
2022/08/18 03:06:48;;;;;;;25.40;23.02;;;;;;;;;;4889698;29;20059;-68
2022/08/18 03:09:16;;;;;;;25.05;22.85;;;;;;;;;;4895336;29;20064;-68
2022/08/18 03:11:42;;;;;;;24.67;22.63;;;;;;;;;;4892320;29;20404;-69
2022/08/18 03:14:08;;;;;;;25.00;22.80;;;;;;;;;;4891515;29;20093;-69
2022/08/18 03:16:37;;;;;;;23.83;21.92;;;;;;;;;;4889731;29;20045;-69
2022/08/18 03:19:02;;;;;;;24.80;22.67;;;;;;;;;;4895145;29;20481;-69
2022/08/18 03:21:30;;;;;;;23.77;21.60;;;;;;;;;;4897658;29;20041;-68
2022/08/18 03:23:57;;;;;;;23.15;20.80;;;;;;;;;;4891911;29;20036;-69
2022/08/18 03:26:24;;;;;;;24.77;22.30;;;;;;;;;;4894435;29;20111;-69
2022/08/18 03:28:52;;;;;;;24.20;22.05;;;;;;;;;;4894063;29;20036;-69
2022/08/18 03:31:21;;;;;;;24.35;22.42;;;;;;;;;;4892734;29;20029;-68
2022/08/18 03:33:47;;;;;;;25.45;23.05;;;;;;;;;;4892761;29;20084;-68
2022/08/18 03:36:16;;;;;;;24.38;22.10;;;;;;;;;;4894494;29;20127;-68
2022/08/18 03:38:44;;;;;;;25.25;22.88;;;;;;;;;;4897188;29;20041;-68
2022/08/18 03:41:12;;;;;;;25.67;23.35;;;;;;;;;;4893573;29;20063;-68
2022/08/18 03:43:39;;;;;;;25.25;22.95;;;;;;;;;;4890119;29;20044;-68
2022/08/18 03:46:08;;;;;;;24.08;21.77;;;;;;;;;;4894646;29;20127;-68
2022/08/18 03:48:34;;;;;;;;;;;;;;;;;;4892452;29;20071;-68
2022/08/18 03:51:12;;;;;;;22.23;20.23;;;;;;;;;;4894772;29;20017;-68
2022/08/18 03:53:38;;;;;;;22.88;20.48;;;;;;;;;;4896775;29;20419;-69
2022/08/18 03:56:14;;;;;;;22.45;20.45;;;;;;;;;;4894321;29;20056;-68
2022/08/18 03:58:45;;;;;;;23.55;21.25;;;;;;;;;;4890866;29;20142;-68
2022/08/18 04:01:15;;;;;;;22.40;20.50;;;;;;;;;;4892110;29;20136;-68
2022/08/18 04:03:42;;;;;;;20.77;19.17;;;;;;;;;;4894695;29;20047;-67
2022/08/18 04:06:13;;;;;;;21.58;19.67;;;;;;;;;;4892174;29;20486;-67
2022/08/18 04:08:39;;;;;;;20.10;18.42;;;;;;;;;;4892820;29;20539;-67
2022/08/18 04:11:05;;;;;;;21.35;19.50;;;;;;;;;;4894389;29;20032;-66
2022/08/18 04:13:35;;;;;;;20.85;19.15;;;;;;;;;;4892607;29;20415;-67
2022/08/18 04:16:00;;;;;;;20.95;19.35;;;;;;;;;;4886696;29;20032;-67
2022/08/18 04:18:27;;;;;;;21.10;19.17;;;;;;;;;;4894268;29;20104;-67
2022/08/18 04:20:53;;;;;;;22.05;20.02;;;;;;;;;;4894651;29;20477;-67
2022/08/18 04:23:20;;;;;;;22.48;20.67;;;;;;;;;;4891161;29;20064;-67
2022/08/18 04:25:53;;;;;;;22.25;20.15;;;;;;;;;;4885546;29;20044;-67
2022/08/18 04:28:19;;;;;;;20.98;19.08;;;;;;;;;;4893671;29;20041;-67
2022/08/18 04:30:45;;;;;;;21.50;19.60;;;;;;;;;;4894559;29;20115;-68
2022/08/18 04:33:10;;;;;;;21.45;19.65;;;;;;;;;;4890139;29;20055;-68
2022/08/18 04:35:36;;;;;;;22.15;20.05;;;;;;;;;;4893377;29;20120;-67
2022/08/18 04:38:01;;;;;;;21.05;19.25;;;;;;;;;;4891473;29;20481;-67
2022/08/18 04:40:28;;;;;;;21.45;19.65;;;;;;;;;;4891294;29;20048;-68
2022/08/18 04:42:54;;;;;;;22.10;20.30;;;;;;;;;;4892047;29;20048;-68
2022/08/18 04:45:19;;;;;;;22.10;20.20;;;;;;;;;;4887927;29;20060;-67
2022/08/18 04:47:45;;;;;;;21.98;20.05;;;;;;;;;;4890574;29;20028;-68
2022/08/18 04:50:11;;;;;;;22.88;20.88;;;;;;;;;;4891161;29;20413;-67
2022/08/18 04:55:21;;;;;;;21.50;19.67;;;;;;;;;;4890520;29;20067;-68
2022/08/18 04:57:46;;;;;;;21.65;19.75;;;;;;;;;;4891426;29;20072;-68
2022/08/18 05:00:12;;;;;;;21.42;19.33;;;;;;;;;;4893108;29;20040;-68
2022/08/18 05:02:39;;;;;;;20.85;19.23;;;;;;;;;;4893043;29;20480;-68
2022/08/18 05:05:05;;;;;;;20.40;18.75;;;;;;;;;;4891939;29;20416;-67
2022/08/18 05:07:31;;;;;;;21.13;19.33;;;;;;;;;;4890751;29;20039;-68
2022/08/18 05:09:57;;;;;;;20.27;18.42;;;;;;;;;;4893286;29;20032;-68
2022/08/18 05:12:23;;;;;;;19.92;18.25;;;;;;;;;;4889417;29;20044;-68
2022/08/18 05:14:50;;;;;;;19.70;18.15;;;;;;;;;;4890164;29;20028;-68
2022/08/18 05:17:16;;;;;;;21.70;19.73;;;;;;;;;;4893134;29;20036;-67
2022/08/18 05:19:45;;;;;;;20.58;18.92;;;;;;;;;;4891852;29;20700;-67
2022/08/18 05:22:18;;;;;;;20.85;19.15;;;;;;;;;;4886677;29;20029;-67
2022/08/18 05:24:44;;;;;;;20.60;19.00;;;;;;;;;;4888225;29;20040;-68
2022/08/18 05:27:09;;;;;;;20.92;18.95;;;;;;;;;;4892977;29;20052;-68
2022/08/18 05:29:35;;;;;;;20.80;18.90;;;;;;;;;;4889801;29;20036;-68
2022/08/18 05:32:05;;;;;;;20.50;18.75;;;;;;;;;;4889801;29;20040;-68
2022/08/18 05:34:31;;;;;;;21.08;19.38;;;;;;;;;;4891418;29;20047;-68
2022/08/18 05:37:19;;;;;;;19.33;17.58;;;;;;;;;;4891025;29;20123;-67
2022/08/18 05:39:56;;;;;;;19.73;18.23;;;;;;;;;;4887789;29;20361;-68
2022/08/18 05:42:24;;;;;;;19.27;17.88;;;;;;;;;;4889161;29;20036;-67
2022/08/18 05:44:52;;;;;;;20.67;18.92;;;;;;;;;;4889435;29;20408;-68
2022/08/18 05:47:28;;;;;;;20.92;19.23;;;;;;;;;;4892264;29;20385;-68
2022/08/18 05:49:56;;;;;;;20.92;19.23;;;;;;;;;;4892458;29;20411;-67
2022/08/18 05:52:33;;;;;;;20.53;18.67;;;;;;;;;;4892599;29;20488;-68
2022/08/18 05:57:55;;;;;;;20.98;19.38;;;;;;;;;;4892650;29;20036;-68
2022/08/18 06:00:22;;;;;;;20.65;19.13;;;;;;;;;;4893204;29;20032;-68
2022/08/18 06:03:07;;;;;;;21.77;19.83;;;;;;;;;;4891498;29;20537;-67
2022/08/18 06:05:43;;;;;;;20.65;18.92;;;;;;;;;;4892522;29;20039;-67
2022/08/18 06:08:12;;;;;;;20.85;19.25;;;;;;;;;;4890309;29;20036;-68
2022/08/18 06:10:43;;;;;;;20.65;19.02;;;;;;;;;;4887760;29;20041;-67
2022/08/18 06:13:10;;;;;;;20.13;18.52;;;;;;;;;;4890927;29;20039;-68
2022/08/18 06:16:13;;;;;;;20.95;18.98;;;;;;;;;;4892708;29;20051;-67
2022/08/18 06:19:12;;;;;;;20.15;18.45;;;;;;;;;;4886533;29;20048;-68
2022/08/18 06:21:41;;;;;;;20.25;18.50;;;;;;;;;;4891864;29;20092;-68
2022/08/18 06:24:28;;;;;;;19.50;17.90;;;;;;;;;;4892206;29;20038;-68
2022/08/18 06:27:16;;;;;;;19.25;17.55;;;;;;;;;;4892867;29;20060;-67
2022/08/18 06:30:03;;;;;;;18.58;17.08;;;;;;;;;;4892020;29;20072;-67
2022/08/18 06:32:52;;;;;;;17.85;16.48;;;;;;;;;;4887983;29;20051;-68
2022/08/18 06:35:26;;;;;;;;;;;;;;;;;;4889016;29;20028;-68
2022/08/18 06:41:14;;;;;;;18.75;17.42;;;;;;;;;;4893146;29;20078;-67
2022/08/18 06:43:50;;;;;;;20.05;18.35;;;;;;;;;;4890546;29;20047;-69
2022/08/18 06:46:20;;;;;;;17.92;16.63;;;;;;;;;;4892255;29;20044;-67
2022/08/18 06:48:53;;;;;;;19.73;17.95;;;;;;;;;;4893735;29;20036;-69
2022/08/18 06:51:21;;;;;;;19.15;17.65;;;;;;;;;;4894428;29;20618;-69
2022/08/18 06:54:00;;;;;;;19.13;17.15;;;;;;;;;;4890884;29;20049;-69
2022/08/18 06:56:44;;;;;;;18.55;17.15;;;;;;;;;;4896471;29;20222;-69
2022/08/18 06:59:35;;;;;;;19.63;18.15;;;;;;;;;;4893327;29;20037;-68
2022/08/18 07:02:23;;;;;;;19.52;17.85;;;;;;;;;;4896208;29;20032;-69
2022/08/18 07:05:20;;;;;;;19.30;17.50;;;;;;;;;;4895684;29;20075;-69
2022/08/18 07:08:09;;;;;;;19.02;17.52;;;;;;;;;;4893969;29;20469;-68
2022/08/18 07:10:46;;;;;;;19.30;17.48;;;;;;;;;;4893534;29;20064;-69
2022/08/18 07:13:11;;;;;;;19.98;18.40;;;;;;;;;;4894147;29;20047;-68
2022/08/18 07:15:38;;;;;;;20.05;18.35;;;;;;;;;;4891677;29;20040;-68
2022/08/18 07:18:06;;;;;;;18.50;17.10;;;;;;;;;;4894706;29;20044;-68
2022/08/18 07:20:54;;;;;;;19.02;17.50;;;;;;;;;;4897103;29;20456;-69
2022/08/18 07:23:27;;;;;;;19.63;17.85;;;;;;;;;;4895159;29;20044;-68
2022/08/18 07:26:10;;;;;;;19.80;18.13;;;;;;;;;;4891354;29;20528;-68
2022/08/18 07:28:43;;;;;;;19.75;17.95;;;;;;;;;;4896388;29;20396;-68
2022/08/18 07:31:27;;;;;;;18.40;17.10;;;;;;;;;;4895306;29;20036;-68
2022/08/18 07:34:21;;;;;;;18.85;17.45;;;;;;;;;;4892380;29;21500;-68
2022/08/18 07:37:22;;;;;;;19.00;17.52;;;;;;;;;;4894665;29;20064;-68
2022/08/18 07:39:58;;;;;;;19.88;18.17;;;;;;;;;;4895472;29;20044;-68
2022/08/18 07:42:33;;;;;;;18.65;17.25;;;;;;;;;;4891090;29;20362;-68
2022/08/18 07:45:04;;;;;;;19.67;18.20;;;;;;;;;;4894214;29;20040;-68
2022/08/18 07:48:06;;;;;;;19.92;18.20;;;;;;;;;;4893439;29;20072;-68
2022/08/18 07:50:58;;;;;;;19.38;17.98;;;;;;;;;;4890668;29;20116;-68
2022/08/18 07:53:40;;;;;;;19.65;18.00;;;;;;;;;;4888850;29;20052;-68
2022/08/18 07:56:31;;;;;;;18.90;17.20;;;;;;;;;;4894600;29;20269;-68
2022/08/18 07:59:23;;;;;;;18.55;16.95;;;;;;;;;;4889098;29;20044;-68
2022/08/18 08:02:12;;;;;;;18.00;16.70;;;;;;;;;;4884375;29;20452;-68
2022/08/18 08:04:42;;;;;;;18.02;16.52;;;;;;;;;;4894059;29;20041;-68
2022/08/18 08:07:11;;;;;;;18.40;17.00;;;;;;;;;;4908874;29;20044;-68
2022/08/18 08:09:45;;;;;;;17.98;16.67;;;;;;;;;;4892302;29;20052;-68
2022/08/18 08:12:23;;;;;;;19.08;17.45;;;;;;;;;;4893158;29;20068;-68
2022/08/18 08:15:06;;;;;;;18.90;17.40;;;;;;;;;;4892534;29;20043;-68
2022/08/18 08:17:37;;;;;;;18.83;17.38;;;;;;;;;;4894243;29;20685;-68
2022/08/18 08:20:18;;;;;;;19.30;17.35;;;;;;;;;;4890626;29;20032;-68
2022/08/18 08:23:21;;;;;;;18.05;16.67;;;;;;;;;;4892686;29;20040;-68
2022/08/18 08:26:14;;;;;;;17.13;15.80;;;;;;;;;;4869782;29;20065;-69
2022/08/18 08:28:58;;;;;;;18.20;16.80;;;;;;;;;;4886548;29;20076;-68
2022/08/18 08:31:29;;;;;;;18.63;17.13;;;;;;;;;;4893956;29;20059;-68
2022/08/18 08:34:04;;;;;;;18.25;16.75;;;;;;;;;;4893258;29;20040;-69
2022/08/18 08:36:34;;;;;;;18.98;17.50;;;;;;;;;;4888531;29;20039;-68
2022/08/18 08:39:16;;;;;;;17.88;16.35;;;;;;;;;;4892882;29;20033;-68
2022/08/18 08:41:53;;;;;;;18.63;17.02;;;;;;;;;;4890485;29;20029;-69
2022/08/18 08:44:25;;;;;;;18.83;17.23;;;;;;;;;;4891080;29;20132;-68
2022/08/18 08:47:06;;;;;;;18.80;17.33;;;;;;;;;;4891188;29;20039;-68
2022/08/18 08:49:44;;;;;;;18.40;16.75;;;;;;;;;;4890815;29;20361;-68
2022/08/18 08:52:21;;;;;;;17.95;16.58;;;;;;;;;;4893408;29;20032;-68
2022/08/18 08:54:52;;;;;;;18.95;17.52;;;;;;;;;;4888441;29;20463;-68
2022/08/18 08:57:20;;;;;;;17.90;16.45;;;;;;;;;;4893996;29;20040;-68
2022/08/18 08:59:49;;;;;;;17.65;16.35;;;;;;;;;;4893861;29;20083;-68
2022/08/18 09:02:33;;;;;;;18.17;16.88;;;;;;;;;;4905351;29;20044;-68
2022/08/18 09:05:10;;;;;;;18.55;16.92;;;;;;;;;;4890206;29;20476;-69
2022/08/18 09:07:47;;;;;;;18.50;17.00;;;;;;;;;;4893656;29;20531;-68
2022/08/18 09:10:41;;;;;;;18.63;17.23;;;;;;;;;;4891880;29;20512;-68
2022/08/18 09:13:41;;;;;;;16.73;15.52;;;;;;;;;;4886161;29;20040;-68
2022/08/18 09:16:12;;;;;;;16.88;15.38;;;;;;;;;;4891775;29;20037;-68
2022/08/18 09:18:44;;;;;;;17.30;15.75;;;;;;;;;;4890796;29;20048;-69
2022/08/18 09:21:38;;;;;;;17.85;16.45;;;;;;;;;;4890248;29;20092;-68
2022/08/18 09:24:18;;;;;;;18.90;17.50;;;;;;;;;;4890797;29;20040;-68
2022/08/18 09:27:02;;;;;;;18.02;16.48;;;;;;;;;;4892711;29;20241;-68
2022/08/18 09:29:37;;;;;;;16.60;15.20;;;;;;;;;;4891477;29;20069;-69
2022/08/18 09:32:18;;;;;;;16.63;15.23;;;;;;;;;;4890275;29;20188;-68
2022/08/18 09:35:03;;;;;;;17.13;15.73;;;;;;;;;;4892702;29;20132;-68
2022/08/18 09:44:10;;;;;;;15.55;14.18;;;;;;;;;;4908998;29;20060;-68
2022/08/18 09:46:41;;;;;;;14.85;13.50;;;;;;;;;;4911651;29;20460;-68
2022/08/18 09:49:22;;;;;;;14.80;13.60;;;;;;;;;;4910436;29;20032;-68
2022/08/18 09:51:59;;;;;;;15.90;14.43;;;;;;;;;;4909071;29;20051;-68
2022/08/18 09:54:26;;;;;;;15.35;13.82;;;;;;;;;;4914105;29;20146;-68
2022/08/18 09:57:17;;;;;;;15.00;13.60;;;;;;;;;;4911857;29;20047;-68
2022/08/18 09:59:46;;;;;;;14.95;13.35;;;;;;;;;;4909846;29;20087;-68
2022/08/18 10:02:31;;;;;;;14.20;13.10;;;;;;;;;;4907676;29;20028;-68
2022/08/18 10:05:19;;;;;;;14.20;13.00;;;;;;;;;;4910354;29;20040;-68
2022/08/18 10:07:46;;;;;;;13.75;12.50;;;;;;;;;;4906409;29;20114;-68
2022/08/18 10:10:48;;;;;;;15.60;14.30;;;;;;;;;;4913149;29;20091;-68
2022/08/18 10:13:39;;;;;;;13.48;12.38;;;;;;;;;;4884719;29;20533;-68
2022/08/18 10:16:34;;;;;;;14.63;13.38;;;;;;;;;;4885461;29;20033;-68
2022/08/18 10:19:28;;;;;;;14.15;13.05;;;;;;;;;;4892619;29;20045;-68
2022/08/18 10:22:00;;;;;;;14.70;13.40;;;;;;;;;;4890243;29;20063;-68
2022/08/18 10:24:44;;;;;;;15.10;13.90;;;;;;;;;;4890411;29;20041;-68
2022/08/18 10:27:46;;;;;;;13.80;12.23;;;;;;;;;;4891070;29;20036;-68
2022/08/18 10:30:33;;;;;;;13.38;11.95;;;;;;;;;;4902979;29;20141;-68
2022/08/18 10:33:06;;;;;;;13.77;12.68;;;;;;;;;;4886228;29;20412;-68
2022/08/18 10:35:37;;;;;;;13.52;12.52;;;;;;;;;;4891078;29;20107;-68
2022/08/18 10:38:20;;;;;;;14.77;13.38;;;;;;;;;;4887607;29;20045;-68
2022/08/18 10:41:11;;;;;;;12.98;11.88;;;;;;;;;;4889001;29;20054;-68
2022/08/18 10:43:43;;;;;;;12.32;11.13;;;;;;;;;;4899896;29;20037;-68
2022/08/18 10:46:22;;;;;;;13.48;12.38;;;;;;;;;;4891462;29;20469;-68
2022/08/18 10:49:24;;;;;;;13.02;11.93;;;;;;;;;;4888521;29;20539;-68
2022/08/18 10:52:05;;;;;;;12.65;11.65;;;;;;;;;;4890391;29;20068;-68
2022/08/18 10:54:48;;;;;;;14.45;13.25;;;;;;;;;;4891910;29;20047;-68
2022/08/18 10:57:29;;;;;;;12.70;11.50;;;;;;;;;;4889462;29;20065;-69
2022/08/18 11:00:17;;;;;;;12.70;11.43;;;;;;;;;;4890004;29;20063;-68
2022/08/18 11:02:51;;;;;;;12.98;11.73;;;;;;;;;;4891689;29;20049;-68
2022/08/18 11:05:23;;;;;;;14.30;12.98;;;;;;;;;;4891485;29;20037;-68
2022/08/18 11:07:59;;;;;;;14.63;13.23;;;;;;;;;;4888790;29;20123;-68
2022/08/18 11:10:47;;;;;;;13.85;12.65;;;;;;;;;;4889028;29;20040;-68
2022/08/18 11:13:20;;;;;;;14.07;12.87;;;;;;;;;;4890813;29;20041;-68
2022/08/18 11:16:12;;;;;;;14.35;12.77;;;;;;;;;;4889763;29;20032;-67
2022/08/18 11:18:44;;;;;;;12.70;11.60;;;;;;;;;;4889289;29;20048;-68
2022/08/18 11:21:31;;;;;;;13.35;12.15;;;;;;;;;;4891743;29;20032;-68
2022/08/18 11:24:02;;;;;;;13.25;12.15;;;;;;;;;;4884542;29;20070;-68
2022/08/18 11:26:30;;;;;;;14.32;13.15;;;;;;;;;;4883422;29;20047;-68
2022/08/18 11:28:55;;;;;;;11.90;11.10;;;;;;;;;;4888690;29;20358;-68
2022/08/18 11:31:21;;;;;;;13.40;11.60;;;;;;;;;;4889789;29;20512;-68
2022/08/18 11:33:47;;;;;;;12.82;11.75;;;;;;;;;;4888446;29;20036;-68
2022/08/18 11:36:15;;;;;;;12.13;11.07;;;;;;;;;;4891013;29;20028;-68
2022/08/18 11:38:53;;;;;;;12.35;11.13;;;;;;;;;;4893168;29;20101;-68
2022/08/18 11:41:23;;;;;;;;;;;;;;;;;;4893435;29;20523;-68
2022/08/18 11:43:56;;;;;;;13.27;12.07;;;;;;;;;;4890986;29;19974;-67
2022/08/18 11:46:40;;;;;;;12.50;11.57;;;;;;;;;;4894602;29;20676;-68
2022/08/18 11:49:31;;;;;;;13.05;12.05;;;;;;;;;;4892931;29;20099;-68
2022/08/18 11:52:16;;;;;;;13.10;12.00;;;;;;;;;;4891167;29;20048;-68
2022/08/18 11:54:47;;;;;;;12.90;11.65;;;;;;;;;;4892333;29;20123;-68
2022/08/18 11:57:40;;;;;;;12.48;11.50;;;;;;;;;;4893235;29;20045;-68
2022/08/18 12:00:35;;;;;;;13.57;12.32;;;;;;;;;;4888769;29;20043;-68
2022/08/18 12:03:22;;;;;;;14.65;13.32;;;;;;;;;;4890663;29;20040;-67
2022/08/18 12:06:11;;;;;;;13.88;12.65;;;;;;;;;;4892774;29;20047;-68
2022/08/18 12:08:59;;;;;;;14.30;13.00;;;;;;;;;;4891055;29;20041;-68
2022/08/18 12:11:53;;;;;;;14.23;12.85;;;;;;;;;;4892711;29;20099;-68
2022/08/18 12:14:24;;;;;;;14.07;12.98;;;;;;;;;;4891006;29;20120;-68
2022/08/18 12:16:51;;;;;;;14.55;13.25;;;;;;;;;;4892591;29;20048;-67
2022/08/18 12:19:17;;;;;;;14.38;13.02;;;;;;;;;;4891069;29;20036;-68
2022/08/18 12:21:42;;;;;;;14.07;12.70;;;;;;;;;;4892275;29;20081;-68
2022/08/18 12:24:18;;;;;;;14.30;13.05;;;;;;;;;;4892789;29;20139;-68
2022/08/18 12:26:43;;;;;;;15.18;12.95;;;;;;;;;;4892241;29;20045;-68
2022/08/18 12:29:09;;;;;;;14.30;13.23;;;;;;;;;;4889937;29;20033;-67
2022/08/18 12:31:34;;;;;;;15.02;13.80;;;;;;;;;;4892305;29;20049;-68
2022/08/18 12:34:00;;;;;;;13.82;12.52;;;;;;;;;;4892148;29;20064;-67
2022/08/18 12:36:27;;;;;;;14.25;13.15;;;;;;;;;;4891976;29;20043;-67
2022/08/18 12:38:52;;;;;;;13.70;12.70;;;;;;;;;;4887962;29;20100;-68
2022/08/18 12:41:18;;;;;;;13.63;12.60;;;;;;;;;;4892222;29;20040;-67
2022/08/18 12:43:43;;;;;;;14.10;12.90;;;;;;;;;;4891769;29;20040;-67
2022/08/18 12:46:09;;;;;;;13.40;12.15;;;;;;;;;;4889913;29;20119;-67
2022/08/18 12:48:35;;;;;;;13.60;12.40;;;;;;;;;;4889382;29;20120;-67
2022/08/18 12:51:01;;;;;;;12.10;11.20;;;;;;;;;;4892090;29;20564;-67
2022/08/18 12:53:27;;;;;;;13.02;11.85;;;;;;;;;;4891738;29;20032;-67
2022/08/18 12:55:52;;;;;;;12.88;11.98;;;;;;;;;;4889976;29;20044;-68
2022/08/18 12:58:18;;;;;;;12.73;11.73;;;;;;;;;;4890862;29;20043;-67
2022/08/18 13:00:44;;;;;;;13.30;12.30;;;;;;;;;;4889091;29;20557;-67
2022/08/18 13:03:09;;;;;;;12.70;11.77;;;;;;;;;;4891497;29;20059;-67
2022/08/18 13:05:36;;;;;;;13.50;12.25;;;;;;;;;;4896644;29;20081;-68
2022/08/18 13:08:03;;;;;;;13.23;12.02;;;;;;;;;;4891987;29;20060;-68
2022/08/18 13:10:29;;;;;;;13.10;11.88;;;;;;;;;;4885209;29;20036;-67
2022/08/18 13:12:55;;;;;;;14.02;12.65;;;;;;;;;;4891763;29;20569;-67
2022/08/18 13:15:21;;;;;;;13.70;12.60;;;;;;;;;;4891863;29;20435;-68
2022/08/18 13:17:46;;;;;;;13.20;12.10;;;;;;;;;;4889920;29;20485;-68
2022/08/18 13:20:14;;;;;;;12.88;11.88;;;;;;;;;;4891655;29;20040;-67
2022/08/18 13:22:40;;;;;;;13.45;12.45;;;;;;;;;;4891418;29;20036;-68
2022/08/18 13:25:12;;;;;;;13.50;12.20;;;;;;;;;;4891378;29;20464;-68
2022/08/18 13:27:38;;;;;;;12.82;11.82;;;;;;;;;;4889764;29;20440;-67
2022/08/18 13:30:08;;;;;;;14.20;12.32;;;;;;;;;;4891077;29;20036;-67
2022/08/18 13:32:33;;;;;;;12.82;11.93;;;;;;;;;;4882224;29;20048;-67
2022/08/18 13:34:59;;;;;;;13.38;12.30;;;;;;;;;;4891720;29;20035;-68
2022/08/18 13:37:27;;;;;;;13.30;12.30;;;;;;;;;;4891497;29;20044;-67
2022/08/18 13:39:53;;;;;;;12.80;11.80;;;;;;;;;;4888494;29;20040;-67
2022/08/18 13:42:18;;;;;;;12.60;11.48;;;;;;;;;;4892583;29;20040;-67
2022/08/18 13:44:44;;;;;;;12.43;11.35;;;;;;;;;;4905575;29;20257;-68
2022/08/18 13:47:09;;;;;;;13.68;12.32;;;;;;;;;;4892652;29;20079;-67
2022/08/18 13:49:35;;;;;;;14.27;12.90;;;;;;;;;;4890017;29;20044;-67
2022/08/18 13:52:01;;;;;;;13.18;12.18;;;;;;;;;;4890009;29;20032;-67
2022/08/18 13:54:34;;;;;;;12.60;11.70;;;;;;;;;;4892623;29;20032;-67
2022/08/18 13:57:01;;;;;;;11.82;10.93;;;;;;;;;;4891326;29;20044;-67
2022/08/18 13:59:31;;;;;;;12.57;11.43;;;;;;;;;;4891300;29;20508;-67
2022/08/18 14:02:00;;;;;;;12.35;11.35;;;;;;;;;;4892493;29;20347;-67
2022/08/18 14:04:25;;;;;;;12.48;11.45;;;;;;;;;;4891673;29;20040;-67
2022/08/18 14:06:53;;;;;;;13.60;12.32;;;;;;;;;;4891509;29;20063;-67
2022/08/18 14:09:19;;;;;;;13.15;12.00;;;;;;;;;;4889164;29;20093;-67
2022/08/18 14:11:46;;;;;;;13.90;12.57;;;;;;;;;;4892924;29;20036;-67
2022/08/18 14:14:12;;;;;;;13.65;12.45;;;;;;;;;;4892757;29;20274;-67
2022/08/18 14:16:38;;;;;;;13.90;12.60;;;;;;;;;;4888558;29;20071;-67
2022/08/18 14:27:29;;;;;;;12.63;11.57;;;;;;;;;;4890080;29;20515;-67
2022/08/18 14:29:56;;;;;;;13.15;12.05;;;;;;;;;;4892325;29;20048;-67
2022/08/18 14:32:25;;;;;;;12.77;11.77;;;;;;;;;;4890850;29;20343;-67
2022/08/18 14:34:52;;;;;;;12.35;11.23;;;;;;;;;;4891495;29;20388;-67
2022/08/18 14:37:19;;;;;;;12.60;11.32;;;;;;;;;;4892422;29;20063;-67
2022/08/18 14:39:45;;;;;;;15.02;12.13;;;;;;;;;;4890958;29;20648;-67
2022/08/18 14:42:16;;;;;;;12.27;11.27;;;;;;;;;;4890247;29;20422;-67
2022/08/18 14:44:42;;;;;;;12.63;11.52;;;;;;;;;;4890469;29;20044;-67
2022/08/18 14:47:07;;;;;;;12.27;11.38;;;;;;;;;;4892755;29;20473;-67
2022/08/18 14:49:34;;;;;;;13.30;11.98;;;;;;;;;;4890865;29;20421;-68
2022/08/18 14:52:01;;;;;;;12.35;11.40;;;;;;;;;;4889981;29;20044;-67
2022/08/18 14:54:27;;;;;;;11.85;10.95;;;;;;;;;;4892332;29;20318;-67
2022/08/18 14:56:53;;;;;;;12.65;11.48;;;;;;;;;;4892332;29;20044;-67
2022/08/18 14:59:19;;;;;;;12.48;11.57;;;;;;;;;;4891050;29;20059;-67
2022/08/18 15:01:44;;;;;;;12.73;11.82;;;;;;;;;;4892069;29;20040;-65
2022/08/18 15:04:10;;;;;;;12.75;11.20;;;;;;;;;;4891995;29;20674;-65
2022/08/18 15:06:36;;;;;;;11.73;10.82;;;;;;;;;;4891541;29;20041;-65
2022/08/18 15:09:02;;;;;;;12.75;11.75;;;;;;;;;;4889044;29;20036;-66
2022/08/18 15:11:27;;;;;;;13.07;11.95;;;;;;;;;;4895637;29;20412;-65
2022/08/18 15:13:53;;;;;;;12.77;11.75;;;;;;;;;;4895414;29;20497;-66
2022/08/18 15:16:21;;;;;;;12.57;11.68;;;;;;;;;;4893525;29;20536;-65
2022/08/18 15:18:48;;;;;;;12.52;11.52;;;;;;;;;;4895372;29;20083;-66
2022/08/18 15:26:42;;;;;;;13.60;12.48;;;;;;;;;;4892901;29;20108;-66